sensor_id;sensor_type;location;lat;lon;timestamp;temperature;humidity
22923;DHT22;11627;51.322;22.816;2023-06-22T00:00:42;21.80;41.40
22923;DHT22;11627;51.322;22.816;2023-06-22T00:03:12;21.70;42.10
22923;DHT22;11627;51.322;22.816;2023-06-22T00:05:39;21.60;44.70
22923;DHT22;11627;51.322;22.816;2023-06-22T00:08:08;21.60;47.30
22923;DHT22;11627;51.322;22.816;2023-06-22T00:10:36;21.50;49.40
22923;DHT22;11627;51.322;22.816;2023-06-22T00:13:07;21.50;51.10
22923;DHT22;11627;51.322;22.816;2023-06-22T00:15:36;21.60;49.40
22923;DHT22;11627;51.322;22.816;2023-06-22T00:18:10;21.60;47.10
22923;DHT22;11627;51.322;22.816;2023-06-22T00:20:36;21.60;47.20
22923;DHT22;11627;51.322;22.816;2023-06-22T00:23:07;21.60;47.60
22923;DHT22;11627;51.322;22.816;2023-06-22T00:25:39;21.60;47.00
22923;DHT22;11627;51.322;22.816;2023-06-22T00:28:08;21.60;46.50
22923;DHT22;11627;51.322;22.816;2023-06-22T00:30:38;21.60;45.60
22923;DHT22;11627;51.322;22.816;2023-06-22T00:33:07;21.60;45.40
22923;DHT22;11627;51.322;22.816;2023-06-22T00:35:34;21.50;46.30
22923;DHT22;11627;51.322;22.816;2023-06-22T00:38:02;21.40;47.60
22923;DHT22;11627;51.322;22.816;2023-06-22T00:40:32;21.50;47.20
22923;DHT22;11627;51.322;22.816;2023-06-22T00:42:59;21.60;46.00
22923;DHT22;11627;51.322;22.816;2023-06-22T00:45:27;21.40;47.70
22923;DHT22;11627;51.322;22.816;2023-06-22T00:47:57;21.50;47.70
22923;DHT22;11627;51.322;22.816;2023-06-22T00:50:29;21.40;47.00
22923;DHT22;11627;51.322;22.816;2023-06-22T00:53:03;21.30;47.50
22923;DHT22;11627;51.322;22.816;2023-06-22T00:55:42;21.30;49.10
22923;DHT22;11627;51.322;22.816;2023-06-22T00:58:12;21.20;50.30
22923;DHT22;11627;51.322;22.816;2023-06-22T01:00:42;21.20;50.40
22923;DHT22;11627;51.322;22.816;2023-06-22T01:03:10;21.20;51.20
22923;DHT22;11627;51.322;22.816;2023-06-22T01:05:39;21.30;51.00
22923;DHT22;11627;51.322;22.816;2023-06-22T01:09:32;21.20;51.80
22923;DHT22;11627;51.322;22.816;2023-06-22T01:11:54;21.20;50.90
22923;DHT22;11627;51.322;22.816;2023-06-22T01:14:59;21.30;49.60
22923;DHT22;11627;51.322;22.816;2023-06-22T01:17:38;21.30;49.20
22923;DHT22;11627;51.322;22.816;2023-06-22T01:20:13;21.30;50.60
22923;DHT22;11627;51.322;22.816;2023-06-22T01:25:58;21.40;49.80
22923;DHT22;11627;51.322;22.816;2023-06-22T01:28:50;21.50;50.40
22923;DHT22;11627;51.322;22.816;2023-06-22T01:31:24;21.60;50.80
22923;DHT22;11627;51.322;22.816;2023-06-22T01:33:57;21.70;50.80
22923;DHT22;11627;51.322;22.816;2023-06-22T01:36:27;21.70;51.20
22923;DHT22;11627;51.322;22.816;2023-06-22T01:38:55;21.70;51.20
22923;DHT22;11627;51.322;22.816;2023-06-22T01:41:29;21.60;51.00
22923;DHT22;11627;51.322;22.816;2023-06-22T01:43:59;21.50;52.30
22923;DHT22;11627;51.322;22.816;2023-06-22T01:46:29;21.40;51.80
22923;DHT22;11627;51.322;22.816;2023-06-22T01:49:14;21.40;52.70
22923;DHT22;11627;51.322;22.816;2023-06-22T01:51:52;21.40;53.10
22923;DHT22;11627;51.322;22.816;2023-06-22T01:54:23;21.30;52.60
22923;DHT22;11627;51.322;22.816;2023-06-22T01:56:52;21.40;52.80
22923;DHT22;11627;51.322;22.816;2023-06-22T01:59:36;21.30;54.00
22923;DHT22;11627;51.322;22.816;2023-06-22T02:02:17;21.20;54.30
22923;DHT22;11627;51.322;22.816;2023-06-22T02:05:06;21.10;56.00
22923;DHT22;11627;51.322;22.816;2023-06-22T02:08:16;21.00;57.90
22923;DHT22;11627;51.322;22.816;2023-06-22T02:10:50;21.00;57.70
22923;DHT22;11627;51.322;22.816;2023-06-22T02:13:18;21.00;63.10
22923;DHT22;11627;51.322;22.816;2023-06-22T02:15:47;20.90;58.30
22923;DHT22;11627;51.322;22.816;2023-06-22T02:18:17;20.80;62.40
22923;DHT22;11627;51.322;22.816;2023-06-22T02:20:45;20.80;63.40
22923;DHT22;11627;51.322;22.816;2023-06-22T02:23:13;20.80;64.20
22923;DHT22;11627;51.322;22.816;2023-06-22T02:25:40;20.80;59.40
22923;DHT22;11627;51.322;22.816;2023-06-22T02:28:13;20.70;59.60
22923;DHT22;11627;51.322;22.816;2023-06-22T02:30:40;20.70;60.70
22923;DHT22;11627;51.322;22.816;2023-06-22T02:33:07;20.90;59.50
22923;DHT22;11627;51.322;22.816;2023-06-22T02:35:36;20.90;57.30
22923;DHT22;11627;51.322;22.816;2023-06-22T02:38:04;20.90;57.40
22923;DHT22;11627;51.322;22.816;2023-06-22T02:40:32;21.00;56.70
22923;DHT22;11627;51.322;22.816;2023-06-22T02:43:01;21.00;55.40
22923;DHT22;11627;51.322;22.816;2023-06-22T02:45:31;21.00;58.80
22923;DHT22;11627;51.322;22.816;2023-06-22T02:47:59;21.00;57.80
22923;DHT22;11627;51.322;22.816;2023-06-22T02:50:28;20.80;58.20
22923;DHT22;11627;51.322;22.816;2023-06-22T02:52:55;20.70;56.40
22923;DHT22;11627;51.322;22.816;2023-06-22T02:55:23;20.70;57.10
22923;DHT22;11627;51.322;22.816;2023-06-22T02:57:51;20.60;59.20
22923;DHT22;11627;51.322;22.816;2023-06-22T03:00:19;20.70;62.60
22923;DHT22;11627;51.322;22.816;2023-06-22T03:02:50;20.80;58.80
22923;DHT22;11627;51.322;22.816;2023-06-22T03:05:16;20.70;62.60
22923;DHT22;11627;51.322;22.816;2023-06-22T03:07:49;20.70;67.90
22923;DHT22;11627;51.322;22.816;2023-06-22T03:10:18;20.70;61.40
22923;DHT22;11627;51.322;22.816;2023-06-22T03:12:49;20.60;64.90
22923;DHT22;11627;51.322;22.816;2023-06-22T03:15:17;20.60;64.10
22923;DHT22;11627;51.322;22.816;2023-06-22T03:17:50;20.70;64.90
22923;DHT22;11627;51.322;22.816;2023-06-22T03:20:18;20.70;63.90
22923;DHT22;11627;51.322;22.816;2023-06-22T03:22:47;20.70;64.70
22923;DHT22;11627;51.322;22.816;2023-06-22T03:25:17;20.70;65.30
22923;DHT22;11627;51.322;22.816;2023-06-22T03:27:44;20.80;65.80
22923;DHT22;11627;51.322;22.816;2023-06-22T03:30:15;20.80;66.40
22923;DHT22;11627;51.322;22.816;2023-06-22T03:32:43;20.80;62.90
22923;DHT22;11627;51.322;22.816;2023-06-22T03:35:10;20.80;66.20
22923;DHT22;11627;51.322;22.816;2023-06-22T03:37:41;20.70;67.00
22923;DHT22;11627;51.322;22.816;2023-06-22T03:40:11;20.60;68.20
22923;DHT22;11627;51.322;22.816;2023-06-22T03:42:42;20.70;68.60
22923;DHT22;11627;51.322;22.816;2023-06-22T03:45:10;20.70;69.20
22923;DHT22;11627;51.322;22.816;2023-06-22T03:47:40;20.80;69.20
22923;DHT22;11627;51.322;22.816;2023-06-22T03:50:08;20.80;69.70
22923;DHT22;11627;51.322;22.816;2023-06-22T03:52:37;20.90;71.70
22923;DHT22;11627;51.322;22.816;2023-06-22T03:55:07;20.80;73.20
22923;DHT22;11627;51.322;22.816;2023-06-22T03:57:34;20.90;73.80
22923;DHT22;11627;51.322;22.816;2023-06-22T04:00:01;21.00;73.90
22923;DHT22;11627;51.322;22.816;2023-06-22T04:02:33;21.20;72.40
22923;DHT22;11627;51.322;22.816;2023-06-22T04:05:00;21.20;66.90
22923;DHT22;11627;51.322;22.816;2023-06-22T04:07:29;21.30;66.40
22923;DHT22;11627;51.322;22.816;2023-06-22T04:09:57;21.40;66.80
22923;DHT22;11627;51.322;22.816;2023-06-22T04:12:24;21.40;67.60
22923;DHT22;11627;51.322;22.816;2023-06-22T04:14:53;21.50;66.60
22923;DHT22;11627;51.322;22.816;2023-06-22T04:17:21;21.60;67.00
22923;DHT22;11627;51.322;22.816;2023-06-22T04:19:53;21.60;65.80
22923;DHT22;11627;51.322;22.816;2023-06-22T04:22:20;21.60;61.50
22923;DHT22;11627;51.322;22.816;2023-06-22T04:24:48;21.60;62.70
22923;DHT22;11627;51.322;22.816;2023-06-22T04:27:19;21.70;63.40
22923;DHT22;11627;51.322;22.816;2023-06-22T04:29:51;21.70;63.20
22923;DHT22;11627;51.322;22.816;2023-06-22T04:32:21;21.80;67.20
22923;DHT22;11627;51.322;22.816;2023-06-22T04:34:50;21.80;64.20
22923;DHT22;11627;51.322;22.816;2023-06-22T04:37:19;21.70;70.30
22923;DHT22;11627;51.322;22.816;2023-06-22T04:39:47;21.70;72.50
22923;DHT22;11627;51.322;22.816;2023-06-22T04:42:15;21.70;69.30
22923;DHT22;11627;51.322;22.816;2023-06-22T04:44:44;21.60;65.30
22923;DHT22;11627;51.322;22.816;2023-06-22T04:47:14;21.70;63.90
22923;DHT22;11627;51.322;22.816;2023-06-22T04:49:40;21.60;64.70
22923;DHT22;11627;51.322;22.816;2023-06-22T04:52:13;21.60;66.30
22923;DHT22;11627;51.322;22.816;2023-06-22T04:54:46;21.60;68.30
22923;DHT22;11627;51.322;22.816;2023-06-22T04:57:14;21.70;70.90
22923;DHT22;11627;51.322;22.816;2023-06-22T04:59:41;21.70;71.60
22923;DHT22;11627;51.322;22.816;2023-06-22T05:02:09;21.80;69.30
22923;DHT22;11627;51.322;22.816;2023-06-22T05:04:38;21.80;70.10
22923;DHT22;11627;51.322;22.816;2023-06-22T05:07:05;21.80;71.40
22923;DHT22;11627;51.322;22.816;2023-06-22T05:09:32;21.80;72.50
22923;DHT22;11627;51.322;22.816;2023-06-22T05:12:02;21.90;73.10
22923;DHT22;11627;51.322;22.816;2023-06-22T05:14:32;22.00;71.90
22923;DHT22;11627;51.322;22.816;2023-06-22T05:17:00;22.20;72.10
22923;DHT22;11627;51.322;22.816;2023-06-22T05:19:30;22.10;65.30
22923;DHT22;11627;51.322;22.816;2023-06-22T05:22:02;22.00;67.00
22923;DHT22;11627;51.322;22.816;2023-06-22T05:24:31;22.10;69.00
22923;DHT22;11627;51.322;22.816;2023-06-22T05:27:00;22.10;71.90
22923;DHT22;11627;51.322;22.816;2023-06-22T05:29:29;22.10;67.40
22923;DHT22;11627;51.322;22.816;2023-06-22T05:31:56;22.10;70.50
22923;DHT22;11627;51.322;22.816;2023-06-22T05:34:26;22.00;69.20
22923;DHT22;11627;51.322;22.816;2023-06-22T05:36:56;22.10;67.70
22923;DHT22;11627;51.322;22.816;2023-06-22T05:39:26;22.10;68.20
22923;DHT22;11627;51.322;22.816;2023-06-22T05:41:54;22.20;68.40
22923;DHT22;11627;51.322;22.816;2023-06-22T05:44:23;22.30;67.90
22923;DHT22;11627;51.322;22.816;2023-06-22T05:46:51;22.40;67.60
22923;DHT22;11627;51.322;22.816;2023-06-22T05:49:18;22.40;66.50
22923;DHT22;11627;51.322;22.816;2023-06-22T05:51:50;22.30;69.60
22923;DHT22;11627;51.322;22.816;2023-06-22T05:54:17;22.30;73.50
22923;DHT22;11627;51.322;22.816;2023-06-22T05:56:47;22.30;74.90
22923;DHT22;11627;51.322;22.816;2023-06-22T05:59:15;22.40;70.00
22923;DHT22;11627;51.322;22.816;2023-06-22T06:01:45;22.40;74.50
22923;DHT22;11627;51.322;22.816;2023-06-22T06:04:18;22.40;70.30
22923;DHT22;11627;51.322;22.816;2023-06-22T06:06:47;22.50;70.30
22923;DHT22;11627;51.322;22.816;2023-06-22T06:09:16;22.60;66.50
22923;DHT22;11627;51.322;22.816;2023-06-22T06:11:45;22.70;61.70
22923;DHT22;11627;51.322;22.816;2023-06-22T06:14:13;22.80;63.30
22923;DHT22;11627;51.322;22.816;2023-06-22T06:16:42;22.70;60.70
22923;DHT22;11627;51.322;22.816;2023-06-22T06:19:10;22.70;60.30
22923;DHT22;11627;51.322;22.816;2023-06-22T06:21:37;22.70;62.30
22923;DHT22;11627;51.322;22.816;2023-06-22T06:24:07;22.80;62.80
22923;DHT22;11627;51.322;22.816;2023-06-22T06:26:34;22.80;62.70
22923;DHT22;11627;51.322;22.816;2023-06-22T06:29:01;22.90;60.40
22923;DHT22;11627;51.322;22.816;2023-06-22T06:31:30;22.90;60.90
22923;DHT22;11627;51.322;22.816;2023-06-22T06:33:56;22.90;62.70
22923;DHT22;11627;51.322;22.816;2023-06-22T06:36:23;22.90;65.00
22923;DHT22;11627;51.322;22.816;2023-06-22T06:38:51;22.90;64.30
22923;DHT22;11627;51.322;22.816;2023-06-22T06:41:18;22.90;64.80
22923;DHT22;11627;51.322;22.816;2023-06-22T06:43:46;22.80;69.10
22923;DHT22;11627;51.322;22.816;2023-06-22T06:46:14;22.90;73.00
22923;DHT22;11627;51.322;22.816;2023-06-22T06:48:42;22.90;69.90
22923;DHT22;11627;51.322;22.816;2023-06-22T06:51:09;22.90;70.60
22923;DHT22;11627;51.322;22.816;2023-06-22T06:53:37;22.90;69.50
22923;DHT22;11627;51.322;22.816;2023-06-22T06:56:05;22.90;67.70
22923;DHT22;11627;51.322;22.816;2023-06-22T06:58:34;23.00;69.00
22923;DHT22;11627;51.322;22.816;2023-06-22T07:01:02;22.90;73.10
22923;DHT22;11627;51.322;22.816;2023-06-22T07:03:29;23.00;72.80
22923;DHT22;11627;51.322;22.816;2023-06-22T07:05:56;22.90;68.00
22923;DHT22;11627;51.322;22.816;2023-06-22T07:08:26;22.90;68.80
22923;DHT22;11627;51.322;22.816;2023-06-22T07:10:55;22.90;69.80
22923;DHT22;11627;51.322;22.816;2023-06-22T07:13:23;22.90;68.30
22923;DHT22;11627;51.322;22.816;2023-06-22T07:15:51;23.00;70.90
22923;DHT22;11627;51.322;22.816;2023-06-22T07:18:19;22.90;66.40
22923;DHT22;11627;51.322;22.816;2023-06-22T07:20:49;23.00;71.50
22923;DHT22;11627;51.322;22.816;2023-06-22T07:23:17;23.00;76.30
22923;DHT22;11627;51.322;22.816;2023-06-22T07:25:46;23.00;76.00
22923;DHT22;11627;51.322;22.816;2023-06-22T07:28:14;23.00;74.10
22923;DHT22;11627;51.322;22.816;2023-06-22T07:30:44;23.00;70.40
22923;DHT22;11627;51.322;22.816;2023-06-22T07:33:12;23.00;70.80
22923;DHT22;11627;51.322;22.816;2023-06-22T07:35:41;23.10;75.80
22923;DHT22;11627;51.322;22.816;2023-06-22T07:38:09;23.20;78.20
22923;DHT22;11627;51.322;22.816;2023-06-22T07:40:38;23.30;78.20
22923;DHT22;11627;51.322;22.816;2023-06-22T07:43:05;23.40;76.40
22923;DHT22;11627;51.322;22.816;2023-06-22T07:45:34;23.50;73.10
22923;DHT22;11627;51.322;22.816;2023-06-22T07:48:02;23.50;71.10
22923;DHT22;11627;51.322;22.816;2023-06-22T07:50:31;23.60;72.20
22923;DHT22;11627;51.322;22.816;2023-06-22T07:52:58;23.60;65.80
22923;DHT22;11627;51.322;22.816;2023-06-22T07:55:25;23.60;68.10
22923;DHT22;11627;51.322;22.816;2023-06-22T07:57:52;23.60;67.60
22923;DHT22;11627;51.322;22.816;2023-06-22T08:00:20;23.70;69.30
22923;DHT22;11627;51.322;22.816;2023-06-22T08:02:47;23.70;74.90
22923;DHT22;11627;51.322;22.816;2023-06-22T08:05:14;23.60;73.40
22923;DHT22;11627;51.322;22.816;2023-06-22T08:07:40;23.60;72.80
22923;DHT22;11627;51.322;22.816;2023-06-22T08:10:11;23.70;75.10
22923;DHT22;11627;51.322;22.816;2023-06-22T08:12:39;23.80;76.00
22923;DHT22;11627;51.322;22.816;2023-06-22T08:15:06;23.90;79.50
22923;DHT22;11627;51.322;22.816;2023-06-22T08:17:33;23.90;75.10
22923;DHT22;11627;51.322;22.816;2023-06-22T08:19:59;23.90;79.10
22923;DHT22;11627;51.322;22.816;2023-06-22T08:22:25;24.00;79.90
22923;DHT22;11627;51.322;22.816;2023-06-22T08:24:51;24.00;78.60
22923;DHT22;11627;51.322;22.816;2023-06-22T08:27:18;24.00;79.00
22923;DHT22;11627;51.322;22.816;2023-06-22T08:29:46;24.10;78.30
22923;DHT22;11627;51.322;22.816;2023-06-22T08:32:14;24.20;77.10
22923;DHT22;11627;51.322;22.816;2023-06-22T08:34:40;24.30;71.20
22923;DHT22;11627;51.322;22.816;2023-06-22T08:37:10;24.30;69.70
22923;DHT22;11627;51.322;22.816;2023-06-22T08:39:37;24.40;70.40
22923;DHT22;11627;51.322;22.816;2023-06-22T08:42:07;24.50;71.50
22923;DHT22;11627;51.322;22.816;2023-06-22T08:44:33;24.50;67.20
22923;DHT22;11627;51.322;22.816;2023-06-22T08:46:59;24.60;68.40
22923;DHT22;11627;51.322;22.816;2023-06-22T08:49:24;24.70;68.20
22923;DHT22;11627;51.322;22.816;2023-06-22T08:51:53;24.80;70.30
22923;DHT22;11627;51.322;22.816;2023-06-22T08:54:23;24.80;71.00
22923;DHT22;11627;51.322;22.816;2023-06-22T08:56:51;24.90;67.30
22923;DHT22;11627;51.322;22.816;2023-06-22T08:59:19;25.00;60.80
22923;DHT22;11627;51.322;22.816;2023-06-22T09:01:48;25.10;60.60
22923;DHT22;11627;51.322;22.816;2023-06-22T09:04:16;25.10;61.90
22923;DHT22;11627;51.322;22.816;2023-06-22T09:06:43;25.20;68.70
22923;DHT22;11627;51.322;22.816;2023-06-22T09:09:21;25.20;64.00
22923;DHT22;11627;51.322;22.816;2023-06-22T09:11:48;25.30;64.90
22923;DHT22;11627;51.322;22.816;2023-06-22T09:14:14;25.30;63.90
22923;DHT22;11627;51.322;22.816;2023-06-22T09:16:41;25.30;59.10
22923;DHT22;11627;51.322;22.816;2023-06-22T09:19:07;25.40;61.50
22923;DHT22;11627;51.322;22.816;2023-06-22T09:21:33;25.40;61.20
22923;DHT22;11627;51.322;22.816;2023-06-22T09:23:59;25.50;64.70
22923;DHT22;11627;51.322;22.816;2023-06-22T09:26:27;25.50;60.10
22923;DHT22;11627;51.322;22.816;2023-06-22T09:28:55;25.60;56.70
22923;DHT22;11627;51.322;22.816;2023-06-22T09:31:32;25.70;67.90
22923;DHT22;11627;51.322;22.816;2023-06-22T09:34:00;25.80;69.50
22923;DHT22;11627;51.322;22.816;2023-06-22T09:36:26;25.80;64.50
22923;DHT22;11627;51.322;22.816;2023-06-22T09:38:53;25.80;67.70
22923;DHT22;11627;51.322;22.816;2023-06-22T09:41:24;25.80;69.40
22923;DHT22;11627;51.322;22.816;2023-06-22T09:43:53;25.90;64.70
22923;DHT22;11627;51.322;22.816;2023-06-22T09:46:20;25.90;63.90
22923;DHT22;11627;51.322;22.816;2023-06-22T09:48:50;26.00;61.90
22923;DHT22;11627;51.322;22.816;2023-06-22T09:51:18;26.00;58.30
22923;DHT22;11627;51.322;22.816;2023-06-22T09:53:48;26.10;58.50
22923;DHT22;11627;51.322;22.816;2023-06-22T09:56:14;26.10;50.00
22923;DHT22;11627;51.322;22.816;2023-06-22T09:58:45;26.10;56.00
22923;DHT22;11627;51.322;22.816;2023-06-22T10:01:12;26.10;54.80
22923;DHT22;11627;51.322;22.816;2023-06-22T10:03:44;26.10;71.00
22923;DHT22;11627;51.322;22.816;2023-06-22T10:06:12;26.10;62.30
22923;DHT22;11627;51.322;22.816;2023-06-22T10:08:41;26.10;75.70
22923;DHT22;11627;51.322;22.816;2023-06-22T10:11:09;26.10;53.00
22923;DHT22;11627;51.322;22.816;2023-06-22T10:13:39;26.10;59.80
22923;DHT22;11627;51.322;22.816;2023-06-22T10:16:07;26.20;58.40
22923;DHT22;11627;51.322;22.816;2023-06-22T10:18:45;26.30;63.00
22923;DHT22;11627;51.322;22.816;2023-06-22T10:21:13;26.40;62.40
22923;DHT22;11627;51.322;22.816;2023-06-22T10:23:40;26.50;62.20
22923;DHT22;11627;51.322;22.816;2023-06-22T10:26:06;26.40;61.60
22923;DHT22;11627;51.322;22.816;2023-06-22T10:28:31;26.40;63.00
22923;DHT22;11627;51.322;22.816;2023-06-22T10:30:57;26.50;61.50
22923;DHT22;11627;51.322;22.816;2023-06-22T10:33:23;26.50;60.80
22923;DHT22;11627;51.322;22.816;2023-06-22T10:35:49;26.50;61.80
22923;DHT22;11627;51.322;22.816;2023-06-22T10:38:15;26.60;65.10
22923;DHT22;11627;51.322;22.816;2023-06-22T10:40:41;26.70;64.50
22923;DHT22;11627;51.322;22.816;2023-06-22T10:43:07;26.80;68.90
22923;DHT22;11627;51.322;22.816;2023-06-22T10:45:33;26.80;70.90
22923;DHT22;11627;51.322;22.816;2023-06-22T10:47:59;26.70;69.60
22923;DHT22;11627;51.322;22.816;2023-06-22T10:50:25;26.50;69.20
22923;DHT22;11627;51.322;22.816;2023-06-22T10:52:51;26.50;65.00
22923;DHT22;11627;51.322;22.816;2023-06-22T10:55:17;26.40;68.80
22923;DHT22;11627;51.322;22.816;2023-06-22T10:57:43;26.30;69.20
22923;DHT22;11627;51.322;22.816;2023-06-22T11:00:13;26.30;71.10
22923;DHT22;11627;51.322;22.816;2023-06-22T11:02:39;26.30;67.50
22923;DHT22;11627;51.322;22.816;2023-06-22T11:05:05;26.40;77.60
22923;DHT22;11627;51.322;22.816;2023-06-22T11:07:32;26.50;63.80
22923;DHT22;11627;51.322;22.816;2023-06-22T11:09:58;26.60;68.10
22923;DHT22;11627;51.322;22.816;2023-06-22T11:12:24;26.60;67.10
22923;DHT22;11627;51.322;22.816;2023-06-22T11:14:50;26.60;60.90
22923;DHT22;11627;51.322;22.816;2023-06-22T11:17:17;26.50;60.60
22923;DHT22;11627;51.322;22.816;2023-06-22T11:19:44;26.60;64.30
22923;DHT22;11627;51.322;22.816;2023-06-22T11:22:10;26.60;69.90
22923;DHT22;11627;51.322;22.816;2023-06-22T11:24:36;26.60;84.50
22923;DHT22;11627;51.322;22.816;2023-06-22T11:27:02;26.60;86.30
22923;DHT22;11627;51.322;22.816;2023-06-22T11:29:28;26.60;89.20
22923;DHT22;11627;51.322;22.816;2023-06-22T11:31:53;26.60;86.30
22923;DHT22;11627;51.322;22.816;2023-06-22T11:34:19;26.60;86.50
22923;DHT22;11627;51.322;22.816;2023-06-22T11:36:45;26.70;90.40
22923;DHT22;11627;51.322;22.816;2023-06-22T11:39:12;26.70;87.70
22923;DHT22;11627;51.322;22.816;2023-06-22T11:41:40;26.80;91.70
22923;DHT22;11627;51.322;22.816;2023-06-22T11:44:07;26.80;88.20
22923;DHT22;11627;51.322;22.816;2023-06-22T11:46:33;26.80;90.20
22923;DHT22;11627;51.322;22.816;2023-06-22T11:49:00;26.80;90.30
22923;DHT22;11627;51.322;22.816;2023-06-22T11:51:26;26.80;90.60
22923;DHT22;11627;51.322;22.816;2023-06-22T11:53:59;26.70;89.30
22923;DHT22;11627;51.322;22.816;2023-06-22T11:56:28;26.70;88.60
22923;DHT22;11627;51.322;22.816;2023-06-22T11:58:54;26.80;90.40
22923;DHT22;11627;51.322;22.816;2023-06-22T12:01:20;26.90;90.40
22923;DHT22;11627;51.322;22.816;2023-06-22T12:03:46;26.80;89.80
22923;DHT22;11627;51.322;22.816;2023-06-22T12:06:13;26.70;91.70
22923;DHT22;11627;51.322;22.816;2023-06-22T12:08:39;26.70;91.70
22923;DHT22;11627;51.322;22.816;2023-06-22T12:11:05;26.70;90.70
22923;DHT22;11627;51.322;22.816;2023-06-22T12:13:31;26.80;90.00
22923;DHT22;11627;51.322;22.816;2023-06-22T12:15:57;26.80;88.50
22923;DHT22;11627;51.322;22.816;2023-06-22T12:18:22;26.80;91.10
22923;DHT22;11627;51.322;22.816;2023-06-22T12:20:48;26.90;85.80
22923;DHT22;11627;51.322;22.816;2023-06-22T12:23:15;26.90;85.00
22923;DHT22;11627;51.322;22.816;2023-06-22T12:25:40;27.00;87.20
22923;DHT22;11627;51.322;22.816;2023-06-22T12:28:06;27.00;87.80
22923;DHT22;11627;51.322;22.816;2023-06-22T12:30:35;27.10;86.70
22923;DHT22;11627;51.322;22.816;2023-06-22T12:33:01;27.00;88.20
22923;DHT22;11627;51.322;22.816;2023-06-22T12:35:26;27.00;90.00
22923;DHT22;11627;51.322;22.816;2023-06-22T12:37:52;27.00;87.20
22923;DHT22;11627;51.322;22.816;2023-06-22T12:40:18;27.00;84.60
22923;DHT22;11627;51.322;22.816;2023-06-22T12:42:45;27.00;82.50
22923;DHT22;11627;51.322;22.816;2023-06-22T12:45:11;26.90;85.40
22923;DHT22;11627;51.322;22.816;2023-06-22T12:47:37;26.90;86.00
22923;DHT22;11627;51.322;22.816;2023-06-22T12:50:03;27.00;84.60
22923;DHT22;11627;51.322;22.816;2023-06-22T12:52:30;27.00;85.00
22923;DHT22;11627;51.322;22.816;2023-06-22T12:54:58;26.90;87.30
22923;DHT22;11627;51.322;22.816;2023-06-22T12:57:24;26.80;85.80
22923;DHT22;11627;51.322;22.816;2023-06-22T12:59:50;26.80;87.10
22923;DHT22;11627;51.322;22.816;2023-06-22T13:02:16;26.80;87.30
22923;DHT22;11627;51.322;22.816;2023-06-22T13:04:42;26.90;87.80
22923;DHT22;11627;51.322;22.816;2023-06-22T13:07:10;26.90;86.30
22923;DHT22;11627;51.322;22.816;2023-06-22T13:09:37;27.00;84.60
22923;DHT22;11627;51.322;22.816;2023-06-22T13:12:05;27.10;85.50
22923;DHT22;11627;51.322;22.816;2023-06-22T13:14:33;27.00;84.60
22923;DHT22;11627;51.322;22.816;2023-06-22T13:16:59;27.00;85.10
22923;DHT22;11627;51.322;22.816;2023-06-22T13:19:26;27.00;85.80
22923;DHT22;11627;51.322;22.816;2023-06-22T13:21:55;27.00;85.30
22923;DHT22;11627;51.322;22.816;2023-06-22T13:24:22;26.90;87.70
22923;DHT22;11627;51.322;22.816;2023-06-22T13:26:49;26.80;87.80
22923;DHT22;11627;51.322;22.816;2023-06-22T13:29:18;26.80;88.50
22923;DHT22;11627;51.322;22.816;2023-06-22T13:31:45;26.70;87.60
22923;DHT22;11627;51.322;22.816;2023-06-22T13:34:12;26.70;85.90
22923;DHT22;11627;51.322;22.816;2023-06-22T13:36:39;26.70;87.70
22923;DHT22;11627;51.322;22.816;2023-06-22T13:39:05;26.60;88.30
22923;DHT22;11627;51.322;22.816;2023-06-22T13:41:32;26.60;84.70
22923;DHT22;11627;51.322;22.816;2023-06-22T13:44:00;26.70;89.40
22923;DHT22;11627;51.322;22.816;2023-06-22T13:46:28;26.70;90.00
22923;DHT22;11627;51.322;22.816;2023-06-22T13:48:54;26.90;83.50
22923;DHT22;11627;51.322;22.816;2023-06-22T13:51:20;27.00;88.00
22923;DHT22;11627;51.322;22.816;2023-06-22T13:53:49;27.00;86.60
22923;DHT22;11627;51.322;22.816;2023-06-22T13:56:16;27.10;86.60
22923;DHT22;11627;51.322;22.816;2023-06-22T13:58:44;27.10;88.70
22923;DHT22;11627;51.322;22.816;2023-06-22T14:01:11;27.10;85.60
22923;DHT22;11627;51.322;22.816;2023-06-22T14:03:41;27.20;87.40
22923;DHT22;11627;51.322;22.816;2023-06-22T14:06:08;27.20;90.40
22923;DHT22;11627;51.322;22.816;2023-06-22T14:08:36;27.20;91.50
22923;DHT22;11627;51.322;22.816;2023-06-22T14:11:05;27.20;90.50
22923;DHT22;11627;51.322;22.816;2023-06-22T14:13:33;27.20;90.60
22923;DHT22;11627;51.322;22.816;2023-06-22T14:15:59;27.30;88.40
22923;DHT22;11627;51.322;22.816;2023-06-22T14:18:27;27.30;89.10
22923;DHT22;11627;51.322;22.816;2023-06-22T14:20:54;27.30;90.20
22923;DHT22;11627;51.322;22.816;2023-06-22T14:23:21;27.30;90.00
22923;DHT22;11627;51.322;22.816;2023-06-22T14:25:48;27.40;86.90
22923;DHT22;11627;51.322;22.816;2023-06-22T14:28:16;27.40;83.90
22923;DHT22;11627;51.322;22.816;2023-06-22T14:30:43;27.50;81.50
22923;DHT22;11627;51.322;22.816;2023-06-22T14:33:12;27.50;79.00
22923;DHT22;11627;51.322;22.816;2023-06-22T14:35:40;27.50;77.40
22923;DHT22;11627;51.322;22.816;2023-06-22T14:38:06;27.50;81.00
22923;DHT22;11627;51.322;22.816;2023-06-22T14:40:34;27.60;79.50
22923;DHT22;11627;51.322;22.816;2023-06-22T14:43:01;27.60;82.30
22923;DHT22;11627;51.322;22.816;2023-06-22T14:45:28;27.60;81.70
22923;DHT22;11627;51.322;22.816;2023-06-22T14:47:56;27.60;82.00
22923;DHT22;11627;51.322;22.816;2023-06-22T14:50:21;27.60;81.40
22923;DHT22;11627;51.322;22.816;2023-06-22T14:52:49;27.50;79.40
22923;DHT22;11627;51.322;22.816;2023-06-22T14:55:16;27.30;78.40
22923;DHT22;11627;51.322;22.816;2023-06-22T14:57:44;27.30;80.00
22923;DHT22;11627;51.322;22.816;2023-06-22T15:00:12;27.30;79.90
22923;DHT22;11627;51.322;22.816;2023-06-22T15:02:40;27.40;81.00
22923;DHT22;11627;51.322;22.816;2023-06-22T15:05:08;27.50;81.60
22923;DHT22;11627;51.322;22.816;2023-06-22T15:07:35;27.50;80.40
22923;DHT22;11627;51.322;22.816;2023-06-22T15:10:02;27.60;78.90
22923;DHT22;11627;51.322;22.816;2023-06-22T15:12:29;27.60;73.30
22923;DHT22;11627;51.322;22.816;2023-06-22T15:14:57;27.60;72.60
22923;DHT22;11627;51.322;22.816;2023-06-22T15:17:25;27.60;75.00
22923;DHT22;11627;51.322;22.816;2023-06-22T15:19:57;27.60;75.00
22923;DHT22;11627;51.322;22.816;2023-06-22T15:22:24;27.60;74.50
22923;DHT22;11627;51.322;22.816;2023-06-22T15:24:53;27.70;75.30
22923;DHT22;11627;51.322;22.816;2023-06-22T15:27:20;27.70;73.80